< < Back
Terminal Aerodrome Forecast


Current Version              Previous Versions:   1  2  3  4  5  6  7  8  9  

Terminal Aerodrome Forecast

297
FTUS44 KHUN 232321
TAFHSV
TAF
KHSV 232321Z 2400/2424 13008KT P6SM FEW050 FEW200
     FM241500 15012G18KT P6SM SCT040
     FM242100 13016G22KT P6SM SCT040 BKN150=

Latest METAR

729
SAUS80 KWBC 241300 CCA
MTRHSV
METAR KHSV 241253Z 13011KT 10SM BKN250 22/14 A3026 RMK AO2 SLP241
T02220144


USA.gov is the U.S. government's official web portal to all federal, state and local government web resources and services.